sensor_id;sensor_type;location;lat;lon;timestamp;P1;durP1;ratioP1;P2;durP2;ratioP2
14799;SDS011;7491;57.750;11.970;2023-10-31T00:00:37;0.90;;;0.50;;
14799;SDS011;7491;57.750;11.970;2023-10-31T00:03:03;1.35;;;0.50;;
14799;SDS011;7491;57.750;11.970;2023-10-31T00:05:30;0.40;;;0.40;;
14799;SDS011;7491;57.750;11.970;2023-10-31T00:07:57;1.33;;;0.50;;
14799;SDS011;7491;57.750;11.970;2023-10-31T00:10:25;1.25;;;0.43;;
14799;SDS011;7491;57.750;11.970;2023-10-31T00:12:52;3.20;;;0.52;;
14799;SDS011;7491;57.750;11.970;2023-10-31T00:15:18;1.02;;;0.50;;
14799;SDS011;7491;57.750;11.970;2023-10-31T00:17:45;0.43;;;0.43;;
14799;SDS011;7491;57.750;11.970;2023-10-31T00:20:12;0.93;;;0.40;;
14799;SDS011;7491;57.750;11.970;2023-10-31T00:22:38;1.08;;;0.50;;
14799;SDS011;7491;57.750;11.970;2023-10-31T00:25:05;1.58;;;0.50;;
14799;SDS011;7491;57.750;11.970;2023-10-31T00:27:34;0.70;;;0.70;;
14799;SDS011;7491;57.750;11.970;2023-10-31T00:30:00;0.40;;;0.40;;
14799;SDS011;7491;57.750;11.970;2023-10-31T00:32:27;1.50;;;0.50;;
14799;SDS011;7491;57.750;11.970;2023-10-31T00:34:53;0.40;;;0.40;;
14799;SDS011;7491;57.750;11.970;2023-10-31T00:37:20;0.77;;;0.50;;
14799;SDS011;7491;57.750;11.970;2023-10-31T00:39:47;0.30;;;0.30;;
14799;SDS011;7491;57.750;11.970;2023-10-31T00:42:13;1.50;;;0.50;;
14799;SDS011;7491;57.750;11.970;2023-10-31T00:44:42;1.40;;;0.30;;
14799;SDS011;7491;57.750;11.970;2023-10-31T00:47:09;0.43;;;0.43;;
14799;SDS011;7491;57.750;11.970;2023-10-31T00:49:35;0.40;;;0.40;;
14799;SDS011;7491;57.750;11.970;2023-10-31T00:52:02;1.23;;;0.40;;
14799;SDS011;7491;57.750;11.970;2023-10-31T00:54:29;1.55;;;0.50;;
14799;SDS011;7491;57.750;11.970;2023-10-31T00:56:56;0.40;;;0.40;;
14799;SDS011;7491;57.750;11.970;2023-10-31T00:59:23;0.47;;;0.47;;
14799;SDS011;7491;57.750;11.970;2023-10-31T01:01:51;0.60;;;0.45;;
14799;SDS011;7491;57.750;11.970;2023-10-31T01:04:18;0.90;;;0.40;;
14799;SDS011;7491;57.750;11.970;2023-10-31T01:06:44;0.40;;;0.40;;
14799;SDS011;7491;57.750;11.970;2023-10-31T01:09:11;0.52;;;0.40;;
14799;SDS011;7491;57.750;11.970;2023-10-31T01:11:38;0.50;;;0.40;;
14799;SDS011;7491;57.750;11.970;2023-10-31T01:14:04;0.22;;;0.22;;
14799;SDS011;7491;57.750;11.970;2023-10-31T01:16:31;0.40;;;0.40;;
14799;SDS011;7491;57.750;11.970;2023-10-31T01:18:59;0.40;;;0.40;;
14799;SDS011;7491;57.750;11.970;2023-10-31T01:21:26;0.30;;;0.30;;
14799;SDS011;7491;57.750;11.970;2023-10-31T01:23:53;0.50;;;0.50;;
14799;SDS011;7491;57.750;11.970;2023-10-31T01:26:19;0.40;;;0.40;;
14799;SDS011;7491;57.750;11.970;2023-10-31T01:28:46;0.43;;;0.43;;
14799;SDS011;7491;57.750;11.970;2023-10-31T01:31:13;0.50;;;0.50;;
14799;SDS011;7491;57.750;11.970;2023-10-31T01:33:39;1.55;;;0.40;;
14799;SDS011;7491;57.750;11.970;2023-10-31T01:36:08;0.40;;;0.40;;
14799;SDS011;7491;57.750;11.970;2023-10-31T01:38:35;0.43;;;0.43;;
14799;SDS011;7491;57.750;11.970;2023-10-31T01:41:02;0.68;;;0.60;;
14799;SDS011;7491;57.750;11.970;2023-10-31T01:43:30;0.63;;;0.40;;
14799;SDS011;7491;57.750;11.970;2023-10-31T01:45:57;0.40;;;0.40;;
14799;SDS011;7491;57.750;11.970;2023-10-31T01:48:24;0.50;;;0.50;;
14799;SDS011;7491;57.750;11.970;2023-10-31T01:50:51;0.82;;;0.57;;
14799;SDS011;7491;57.750;11.970;2023-10-31T01:53:20;0.40;;;0.40;;
14799;SDS011;7491;57.750;11.970;2023-10-31T01:55:47;0.40;;;0.40;;
14799;SDS011;7491;57.750;11.970;2023-10-31T01:58:13;0.30;;;0.30;;
14799;SDS011;7491;57.750;11.970;2023-10-31T02:00:41;0.43;;;0.43;;
14799;SDS011;7491;57.750;11.970;2023-10-31T02:03:08;0.45;;;0.45;;
14799;SDS011;7491;57.750;11.970;2023-10-31T02:05:35;0.30;;;0.30;;
14799;SDS011;7491;57.750;11.970;2023-10-31T02:08:02;0.40;;;0.40;;
14799;SDS011;7491;57.750;11.970;2023-10-31T02:10:30;0.40;;;0.40;;
14799;SDS011;7491;57.750;11.970;2023-10-31T02:12:57;0.40;;;0.40;;
14799;SDS011;7491;57.750;11.970;2023-10-31T02:15:24;0.30;;;0.30;;
14799;SDS011;7491;57.750;11.970;2023-10-31T02:17:50;0.40;;;0.40;;
14799;SDS011;7491;57.750;11.970;2023-10-31T02:20:17;0.40;;;0.40;;
14799;SDS011;7491;57.750;11.970;2023-10-31T02:22:45;0.28;;;0.28;;
14799;SDS011;7491;57.750;11.970;2023-10-31T02:25:16;0.40;;;0.40;;
14799;SDS011;7491;57.750;11.970;2023-10-31T02:27:43;0.32;;;0.32;;
14799;SDS011;7491;57.750;11.970;2023-10-31T02:30:10;0.30;;;0.30;;
14799;SDS011;7491;57.750;11.970;2023-10-31T02:32:37;0.30;;;0.30;;
14799;SDS011;7491;57.750;11.970;2023-10-31T02:35:05;0.30;;;0.30;;
14799;SDS011;7491;57.750;11.970;2023-10-31T02:37:32;0.40;;;0.40;;
14799;SDS011;7491;57.750;11.970;2023-10-31T02:40:00;0.40;;;0.40;;
14799;SDS011;7491;57.750;11.970;2023-10-31T02:42:27;0.30;;;0.30;;
14799;SDS011;7491;57.750;11.970;2023-10-31T02:44:54;0.68;;;0.40;;
14799;SDS011;7491;57.750;11.970;2023-10-31T02:47:21;1.38;;;0.50;;
14799;SDS011;7491;57.750;11.970;2023-10-31T02:49:47;0.77;;;0.40;;
14799;SDS011;7491;57.750;11.970;2023-10-31T02:52:14;0.55;;;0.55;;
14799;SDS011;7491;57.750;11.970;2023-10-31T02:54:41;0.60;;;0.60;;
14799;SDS011;7491;57.750;11.970;2023-10-31T02:57:09;0.60;;;0.60;;
14799;SDS011;7491;57.750;11.970;2023-10-31T02:59:36;0.80;;;0.80;;
14799;SDS011;7491;57.750;11.970;2023-10-31T03:02:02;1.65;;;0.90;;
14799;SDS011;7491;57.750;11.970;2023-10-31T03:04:29;0.80;;;0.80;;
14799;SDS011;7491;57.750;11.970;2023-10-31T03:06:56;0.70;;;0.70;;
14799;SDS011;7491;57.750;11.970;2023-10-31T03:09:23;1.27;;;0.90;;
14799;SDS011;7491;57.750;11.970;2023-10-31T03:11:49;0.88;;;0.88;;
14799;SDS011;7491;57.750;11.970;2023-10-31T03:14:17;0.57;;;0.57;;
14799;SDS011;7491;57.750;11.970;2023-10-31T03:16:44;0.60;;;0.60;;
14799;SDS011;7491;57.750;11.970;2023-10-31T03:19:11;0.40;;;0.40;;
14799;SDS011;7491;57.750;11.970;2023-10-31T03:21:38;0.50;;;0.50;;
14799;SDS011;7491;57.750;11.970;2023-10-31T03:24:05;0.40;;;0.40;;
14799;SDS011;7491;57.750;11.970;2023-10-31T03:26:32;0.50;;;0.50;;
14799;SDS011;7491;57.750;11.970;2023-10-31T03:28:58;0.70;;;0.70;;
14799;SDS011;7491;57.750;11.970;2023-10-31T03:31:26;0.30;;;0.30;;
14799;SDS011;7491;57.750;11.970;2023-10-31T03:33:53;0.40;;;0.40;;
14799;SDS011;7491;57.750;11.970;2023-10-31T03:36:20;0.30;;;0.30;;
14799;SDS011;7491;57.750;11.970;2023-10-31T03:38:46;0.30;;;0.30;;
14799;SDS011;7491;57.750;11.970;2023-10-31T03:41:14;0.30;;;0.30;;
14799;SDS011;7491;57.750;11.970;2023-10-31T03:43:41;0.30;;;0.30;;
14799;SDS011;7491;57.750;11.970;2023-10-31T03:46:08;0.30;;;0.30;;
14799;SDS011;7491;57.750;11.970;2023-10-31T03:48:36;1.98;;;0.93;;
14799;SDS011;7491;57.750;11.970;2023-10-31T03:51:03;6.32;;;1.10;;
14799;SDS011;7491;57.750;11.970;2023-10-31T03:53:29;1.55;;;0.80;;
14799;SDS011;7491;57.750;11.970;2023-10-31T03:55:58;3.63;;;1.25;;
14799;SDS011;7491;57.750;11.970;2023-10-31T03:58:25;7.40;;;1.90;;
14799;SDS011;7491;57.750;11.970;2023-10-31T04:00:51;7.93;;;1.83;;
14799;SDS011;7491;57.750;11.970;2023-10-31T04:03:18;4.30;;;2.25;;
14799;SDS011;7491;57.750;11.970;2023-10-31T04:05:46;6.10;;;1.92;;
14799;SDS011;7491;57.750;11.970;2023-10-31T04:08:12;8.50;;;1.83;;
14799;SDS011;7491;57.750;11.970;2023-10-31T04:10:39;4.82;;;1.92;;
14799;SDS011;7491;57.750;11.970;2023-10-31T04:13:06;5.13;;;1.30;;
14799;SDS011;7491;57.750;11.970;2023-10-31T04:15:32;3.80;;;1.75;;
14799;SDS011;7491;57.750;11.970;2023-10-31T04:18:00;5.13;;;1.80;;
14799;SDS011;7491;57.750;11.970;2023-10-31T04:20:26;1.40;;;0.77;;
14799;SDS011;7491;57.750;11.970;2023-10-31T04:22:54;5.38;;;1.40;;
14799;SDS011;7491;57.750;11.970;2023-10-31T04:25:21;6.13;;;1.60;;
14799;SDS011;7491;57.750;11.970;2023-10-31T04:27:47;5.72;;;1.75;;
14799;SDS011;7491;57.750;11.970;2023-10-31T04:30:15;2.78;;;1.35;;
14799;SDS011;7491;57.750;11.970;2023-10-31T04:32:42;7.70;;;2.35;;
14799;SDS011;7491;57.750;11.970;2023-10-31T04:35:08;10.27;;;2.13;;
14799;SDS011;7491;57.750;11.970;2023-10-31T04:37:35;9.10;;;2.50;;
14799;SDS011;7491;57.750;11.970;2023-10-31T04:40:03;14.95;;;2.42;;
14799;SDS011;7491;57.750;11.970;2023-10-31T04:42:31;10.50;;;2.55;;
14799;SDS011;7491;57.750;11.970;2023-10-31T04:44:58;11.48;;;2.80;;
14799;SDS011;7491;57.750;11.970;2023-10-31T04:47:25;7.82;;;2.22;;
14799;SDS011;7491;57.750;11.970;2023-10-31T04:49:52;4.93;;;1.88;;
14799;SDS011;7491;57.750;11.970;2023-10-31T04:52:18;7.13;;;1.90;;
14799;SDS011;7491;57.750;11.970;2023-10-31T04:54:47;5.10;;;1.73;;
14799;SDS011;7491;57.750;11.970;2023-10-31T04:57:15;7.30;;;1.75;;
14799;SDS011;7491;57.750;11.970;2023-10-31T04:59:42;4.50;;;1.27;;
14799;SDS011;7491;57.750;11.970;2023-10-31T05:02:09;5.07;;;1.50;;
14799;SDS011;7491;57.750;11.970;2023-10-31T05:04:37;6.13;;;1.35;;
14799;SDS011;7491;57.750;11.970;2023-10-31T05:07:04;6.85;;;1.42;;
14799;SDS011;7491;57.750;11.970;2023-10-31T05:09:31;5.32;;;1.50;;
14799;SDS011;7491;57.750;11.970;2023-10-31T05:11:57;4.80;;;1.40;;
14799;SDS011;7491;57.750;11.970;2023-10-31T05:14:25;9.65;;;1.52;;
14799;SDS011;7491;57.750;11.970;2023-10-31T05:16:52;2.67;;;1.20;;
14799;SDS011;7491;57.750;11.970;2023-10-31T05:19:18;1.90;;;1.10;;
14799;SDS011;7491;57.750;11.970;2023-10-31T05:21:45;1.48;;;0.90;;
14799;SDS011;7491;57.750;11.970;2023-10-31T05:24:12;0.82;;;0.82;;
14799;SDS011;7491;57.750;11.970;2023-10-31T05:26:39;0.70;;;0.70;;
14799;SDS011;7491;57.750;11.970;2023-10-31T05:29:07;0.60;;;0.60;;
14799;SDS011;7491;57.750;11.970;2023-10-31T05:31:35;2.88;;;0.90;;
14799;SDS011;7491;57.750;11.970;2023-10-31T05:34:02;0.80;;;0.70;;
14799;SDS011;7491;57.750;11.970;2023-10-31T05:36:30;0.77;;;0.60;;
14799;SDS011;7491;57.750;11.970;2023-10-31T05:38:57;0.70;;;0.70;;
14799;SDS011;7491;57.750;11.970;2023-10-31T05:41:24;0.50;;;0.50;;
14799;SDS011;7491;57.750;11.970;2023-10-31T05:43:50;0.57;;;0.57;;
14799;SDS011;7491;57.750;11.970;2023-10-31T05:46:17;0.50;;;0.50;;
14799;SDS011;7491;57.750;11.970;2023-10-31T05:48:45;0.70;;;0.70;;
14799;SDS011;7491;57.750;11.970;2023-10-31T05:51:12;1.48;;;0.60;;
14799;SDS011;7491;57.750;11.970;2023-10-31T05:53:40;2.58;;;0.90;;
14799;SDS011;7491;57.750;11.970;2023-10-31T05:56:08;0.70;;;0.70;;
14799;SDS011;7491;57.750;11.970;2023-10-31T05:58:36;0.70;;;0.70;;
14799;SDS011;7491;57.750;11.970;2023-10-31T06:01:03;0.75;;;0.75;;
14799;SDS011;7491;57.750;11.970;2023-10-31T06:03:30;0.60;;;0.60;;
14799;SDS011;7491;57.750;11.970;2023-10-31T06:05:58;0.70;;;0.70;;
14799;SDS011;7491;57.750;11.970;2023-10-31T06:08:25;0.70;;;0.65;;
14799;SDS011;7491;57.750;11.970;2023-10-31T06:10:54;1.27;;;0.70;;
14799;SDS011;7491;57.750;11.970;2023-10-31T06:13:21;1.05;;;0.80;;
14799;SDS011;7491;57.750;11.970;2023-10-31T06:15:48;1.65;;;0.70;;
14799;SDS011;7491;57.750;11.970;2023-10-31T06:18:14;2.15;;;0.70;;
14799;SDS011;7491;57.750;11.970;2023-10-31T06:20:41;0.60;;;0.60;;
14799;SDS011;7491;57.750;11.970;2023-10-31T06:23:09;0.80;;;0.80;;
14799;SDS011;7491;57.750;11.970;2023-10-31T06:25:36;1.42;;;1.05;;
14799;SDS011;7491;57.750;11.970;2023-10-31T06:28:02;0.70;;;0.70;;
14799;SDS011;7491;57.750;11.970;2023-10-31T06:30:29;5.18;;;1.00;;
14799;SDS011;7491;57.750;11.970;2023-10-31T06:32:56;0.80;;;0.80;;
14799;SDS011;7491;57.750;11.970;2023-10-31T06:35:22;0.80;;;0.80;;
14799;SDS011;7491;57.750;11.970;2023-10-31T06:37:50;2.78;;;1.30;;
14799;SDS011;7491;57.750;11.970;2023-10-31T06:40:19;2.15;;;1.25;;
14799;SDS011;7491;57.750;11.970;2023-10-31T06:42:45;1.75;;;1.30;;
14799;SDS011;7491;57.750;11.970;2023-10-31T06:45:12;1.95;;;1.45;;
14799;SDS011;7491;57.750;11.970;2023-10-31T06:47:39;1.63;;;1.38;;
14799;SDS011;7491;57.750;11.970;2023-10-31T06:50:07;4.97;;;1.20;;
14799;SDS011;7491;57.750;11.970;2023-10-31T06:52:34;1.58;;;1.15;;
14799;SDS011;7491;57.750;11.970;2023-10-31T06:55:01;3.10;;;1.30;;
14799;SDS011;7491;57.750;11.970;2023-10-31T06:57:29;2.63;;;1.52;;
14799;SDS011;7491;57.750;11.970;2023-10-31T06:59:56;2.47;;;1.20;;
14799;SDS011;7491;57.750;11.970;2023-10-31T07:02:23;1.30;;;1.20;;
14799;SDS011;7491;57.750;11.970;2023-10-31T07:04:51;1.80;;;0.90;;
14799;SDS011;7491;57.750;11.970;2023-10-31T07:07:17;2.65;;;1.00;;
14799;SDS011;7491;57.750;11.970;2023-10-31T07:09:44;3.20;;;1.30;;
14799;SDS011;7491;57.750;11.970;2023-10-31T07:12:13;1.30;;;1.17;;
14799;SDS011;7491;57.750;11.970;2023-10-31T07:14:41;6.05;;;1.15;;
14799;SDS011;7491;57.750;11.970;2023-10-31T07:17:07;1.17;;;1.08;;
14799;SDS011;7491;57.750;11.970;2023-10-31T07:19:34;6.40;;;1.23;;
14799;SDS011;7491;57.750;11.970;2023-10-31T07:22:01;1.23;;;0.80;;
14799;SDS011;7491;57.750;11.970;2023-10-31T07:24:28;1.10;;;0.88;;
14799;SDS011;7491;57.750;11.970;2023-10-31T07:26:55;3.22;;;0.80;;
14799;SDS011;7491;57.750;11.970;2023-10-31T07:29:21;1.98;;;0.90;;
14799;SDS011;7491;57.750;11.970;2023-10-31T07:31:49;2.88;;;0.90;;
14799;SDS011;7491;57.750;11.970;2023-10-31T07:34:16;1.02;;;1.00;;
14799;SDS011;7491;57.750;11.970;2023-10-31T07:36:43;0.90;;;0.90;;
14799;SDS011;7491;57.750;11.970;2023-10-31T07:39:09;1.75;;;0.93;;
14799;SDS011;7491;57.750;11.970;2023-10-31T07:41:37;3.28;;;2.15;;
14799;SDS011;7491;57.750;11.970;2023-10-31T07:44:05;2.72;;;1.38;;
14799;SDS011;7491;57.750;11.970;2023-10-31T07:46:32;8.27;;;1.60;;
14799;SDS011;7491;57.750;11.970;2023-10-31T07:49:01;4.38;;;1.50;;
14799;SDS011;7491;57.750;11.970;2023-10-31T07:51:28;3.80;;;1.60;;
14799;SDS011;7491;57.750;11.970;2023-10-31T07:53:54;9.50;;;2.15;;
14799;SDS011;7491;57.750;11.970;2023-10-31T07:56:23;7.22;;;1.88;;
14799;SDS011;7491;57.750;11.970;2023-10-31T07:58:50;5.82;;;1.90;;
14799;SDS011;7491;57.750;11.970;2023-10-31T08:01:17;4.90;;;1.48;;
14799;SDS011;7491;57.750;11.970;2023-10-31T08:03:44;7.15;;;1.88;;
14799;SDS011;7491;57.750;11.970;2023-10-31T08:06:13;6.13;;;1.92;;
14799;SDS011;7491;57.750;11.970;2023-10-31T08:08:40;4.85;;;1.88;;
14799;SDS011;7491;57.750;11.970;2023-10-31T08:11:07;7.78;;;1.90;;
14799;SDS011;7491;57.750;11.970;2023-10-31T08:13:35;5.22;;;1.58;;
14799;SDS011;7491;57.750;11.970;2023-10-31T08:16:02;6.88;;;1.67;;
14799;SDS011;7491;57.750;11.970;2023-10-31T08:18:30;7.63;;;1.60;;
14799;SDS011;7491;57.750;11.970;2023-10-31T08:20:56;5.20;;;1.08;;
14799;SDS011;7491;57.750;11.970;2023-10-31T08:23:24;3.38;;;1.77;;
14799;SDS011;7491;57.750;11.970;2023-10-31T08:25:52;2.25;;;1.55;;
14799;SDS011;7491;57.750;11.970;2023-10-31T08:28:18;2.10;;;1.70;;
14799;SDS011;7491;57.750;11.970;2023-10-31T08:30:45;1.75;;;1.40;;
14799;SDS011;7491;57.750;11.970;2023-10-31T08:33:12;2.47;;;1.50;;
14799;SDS011;7491;57.750;11.970;2023-10-31T08:35:39;7.10;;;1.50;;
14799;SDS011;7491;57.750;11.970;2023-10-31T08:38:06;1.70;;;1.60;;
14799;SDS011;7491;57.750;11.970;2023-10-31T08:40:34;2.55;;;1.20;;
14799;SDS011;7491;57.750;11.970;2023-10-31T08:43:01;1.17;;;1.05;;
14799;SDS011;7491;57.750;11.970;2023-10-31T08:45:29;1.20;;;0.82;;
14799;SDS011;7491;57.750;11.970;2023-10-31T08:47:56;1.77;;;1.08;;
14799;SDS011;7491;57.750;11.970;2023-10-31T08:50:23;2.88;;;1.23;;
14799;SDS011;7491;57.750;11.970;2023-10-31T08:52:49;3.17;;;1.67;;
14799;SDS011;7491;57.750;11.970;2023-10-31T08:55:16;10.75;;;2.40;;
14799;SDS011;7491;57.750;11.970;2023-10-31T08:57:44;10.32;;;2.38;;
14799;SDS011;7491;57.750;11.970;2023-10-31T09:00:11;10.23;;;2.67;;
14799;SDS011;7491;57.750;11.970;2023-10-31T09:02:39;3.55;;;1.70;;
14799;SDS011;7491;57.750;11.970;2023-10-31T09:05:08;2.33;;;1.83;;
14799;SDS011;7491;57.750;11.970;2023-10-31T09:07:34;3.13;;;1.48;;
14799;SDS011;7491;57.750;11.970;2023-10-31T09:10:01;3.10;;;1.50;;
14799;SDS011;7491;57.750;11.970;2023-10-31T09:12:30;2.08;;;1.20;;
14799;SDS011;7491;57.750;11.970;2023-10-31T09:14:58;1.80;;;1.02;;
14799;SDS011;7491;57.750;11.970;2023-10-31T09:17:25;1.80;;;0.90;;
14799;SDS011;7491;57.750;11.970;2023-10-31T09:19:51;3.05;;;1.27;;
14799;SDS011;7491;57.750;11.970;2023-10-31T09:22:19;0.93;;;0.93;;
14799;SDS011;7491;57.750;11.970;2023-10-31T09:24:45;1.17;;;1.10;;
14799;SDS011;7491;57.750;11.970;2023-10-31T09:27:12;0.82;;;0.82;;
14799;SDS011;7491;57.750;11.970;2023-10-31T09:29:39;0.93;;;0.93;;
14799;SDS011;7491;57.750;11.970;2023-10-31T09:32:07;0.70;;;0.70;;
14799;SDS011;7491;57.750;11.970;2023-10-31T09:34:34;0.88;;;0.80;;
14799;SDS011;7491;57.750;11.970;2023-10-31T09:37:00;1.17;;;0.85;;
14799;SDS011;7491;57.750;11.970;2023-10-31T09:39:27;0.95;;;0.90;;
14799;SDS011;7491;57.750;11.970;2023-10-31T09:41:54;2.28;;;0.90;;
14799;SDS011;7491;57.750;11.970;2023-10-31T09:44:20;1.02;;;0.90;;
14799;SDS011;7491;57.750;11.970;2023-10-31T09:46:47;2.97;;;0.90;;
14799;SDS011;7491;57.750;11.970;2023-10-31T09:49:16;2.20;;;0.70;;
14799;SDS011;7491;57.750;11.970;2023-10-31T09:51:43;1.10;;;0.98;;
14799;SDS011;7491;57.750;11.970;2023-10-31T09:54:11;0.73;;;0.50;;
14799;SDS011;7491;57.750;11.970;2023-10-31T09:56:40;0.73;;;0.73;;
14799;SDS011;7491;57.750;11.970;2023-10-31T09:59:08;4.50;;;0.90;;
14799;SDS011;7491;57.750;11.970;2023-10-31T10:01:35;0.80;;;0.80;;
14799;SDS011;7491;57.750;11.970;2023-10-31T10:04:09;1.23;;;0.75;;
14799;SDS011;7491;57.750;11.970;2023-10-31T10:07:01;0.50;;;0.50;;
14799;SDS011;7491;57.750;11.970;2023-10-31T10:09:33;0.60;;;0.60;;
14799;SDS011;7491;57.750;11.970;2023-10-31T10:12:01;1.60;;;0.70;;
14799;SDS011;7491;57.750;11.970;2023-10-31T10:14:28;0.50;;;0.50;;
14799;SDS011;7491;57.750;11.970;2023-10-31T10:16:56;0.60;;;0.60;;
14799;SDS011;7491;57.750;11.970;2023-10-31T10:19:24;0.57;;;0.57;;
14799;SDS011;7491;57.750;11.970;2023-10-31T10:21:52;2.25;;;0.70;;
14799;SDS011;7491;57.750;11.970;2023-10-31T10:24:21;1.30;;;0.60;;
14799;SDS011;7491;57.750;11.970;2023-10-31T10:26:49;0.60;;;0.60;;
14799;SDS011;7491;57.750;11.970;2023-10-31T10:29:18;1.08;;;0.60;;
14799;SDS011;7491;57.750;11.970;2023-10-31T10:31:45;1.30;;;0.80;;
14799;SDS011;7491;57.750;11.970;2023-10-31T10:34:13;0.60;;;0.60;;
14799;SDS011;7491;57.750;11.970;2023-10-31T10:36:41;0.70;;;0.70;;
14799;SDS011;7491;57.750;11.970;2023-10-31T10:39:13;2.25;;;0.80;;
14799;SDS011;7491;57.750;11.970;2023-10-31T10:41:44;0.60;;;0.60;;
14799;SDS011;7491;57.750;11.970;2023-10-31T10:44:16;1.25;;;0.77;;
14799;SDS011;7491;57.750;11.970;2023-10-31T10:46:44;0.75;;;0.60;;
14799;SDS011;7491;57.750;11.970;2023-10-31T10:49:20;2.67;;;0.60;;
14799;SDS011;7491;57.750;11.970;2023-10-31T10:51:52;0.57;;;0.57;;
14799;SDS011;7491;57.750;11.970;2023-10-31T10:54:25;2.05;;;0.90;;
14799;SDS011;7491;57.750;11.970;2023-10-31T10:56:59;3.38;;;1.17;;
14799;SDS011;7491;57.750;11.970;2023-10-31T10:59:38;2.28;;;1.23;;
14799;SDS011;7491;57.750;11.970;2023-10-31T11:02:08;5.32;;;1.58;;
14799;SDS011;7491;57.750;11.970;2023-10-31T11:04:38;4.30;;;1.77;;
14799;SDS011;7491;57.750;11.970;2023-10-31T11:07:08;2.50;;;1.00;;
14799;SDS011;7491;57.750;11.970;2023-10-31T11:09:36;3.95;;;1.35;;
14799;SDS011;7491;57.750;11.970;2023-10-31T11:12:04;6.80;;;1.75;;
14799;SDS011;7491;57.750;11.970;2023-10-31T11:14:32;3.28;;;1.48;;
14799;SDS011;7491;57.750;11.970;2023-10-31T11:17:01;2.38;;;0.98;;
14799;SDS011;7491;57.750;11.970;2023-10-31T11:19:33;5.05;;;1.15;;
14799;SDS011;7491;57.750;11.970;2023-10-31T11:22:01;3.97;;;1.65;;
14799;SDS011;7491;57.750;11.970;2023-10-31T11:24:30;5.75;;;1.75;;
14799;SDS011;7491;57.750;11.970;2023-10-31T11:27:01;3.58;;;1.55;;
14799;SDS011;7491;57.750;11.970;2023-10-31T11:29:28;6.15;;;1.70;;
14799;SDS011;7491;57.750;11.970;2023-10-31T11:31:57;6.20;;;2.00;;
14799;SDS011;7491;57.750;11.970;2023-10-31T11:34:25;6.50;;;2.05;;
14799;SDS011;7491;57.750;11.970;2023-10-31T11:36:52;8.30;;;2.13;;
14799;SDS011;7491;57.750;11.970;2023-10-31T11:39:19;5.28;;;1.30;;
14799;SDS011;7491;57.750;11.970;2023-10-31T11:41:51;6.00;;;1.90;;
14799;SDS011;7491;57.750;11.970;2023-10-31T11:44:23;3.40;;;1.48;;
14799;SDS011;7491;57.750;11.970;2023-10-31T11:46:52;4.82;;;1.90;;
14799;SDS011;7491;57.750;11.970;2023-10-31T11:49:32;4.68;;;1.67;;
14799;SDS011;7491;57.750;11.970;2023-10-31T11:52:15;5.45;;;2.13;;
14799;SDS011;7491;57.750;11.970;2023-10-31T11:54:43;5.75;;;2.10;;
14799;SDS011;7491;57.750;11.970;2023-10-31T11:57:10;6.40;;;1.88;;
14799;SDS011;7491;57.750;11.970;2023-10-31T11:59:38;4.05;;;1.20;;
14799;SDS011;7491;57.750;11.970;2023-10-31T12:02:12;7.32;;;1.30;;
14799;SDS011;7491;57.750;11.970;2023-10-31T12:04:40;1.88;;;0.60;;
14799;SDS011;7491;57.750;11.970;2023-10-31T12:07:06;5.32;;;1.27;;
14799;SDS011;7491;57.750;11.970;2023-10-31T12:09:42;3.38;;;0.77;;
14799;SDS011;7491;57.750;11.970;2023-10-31T12:12:12;3.42;;;1.00;;
14799;SDS011;7491;57.750;11.970;2023-10-31T12:14:42;1.80;;;0.73;;
14799;SDS011;7491;57.750;11.970;2023-10-31T12:17:09;0.68;;;0.60;;
14799;SDS011;7491;57.750;11.970;2023-10-31T12:19:36;1.63;;;0.57;;
14799;SDS011;7491;57.750;11.970;2023-10-31T12:22:11;0.47;;;0.47;;
14799;SDS011;7491;57.750;11.970;2023-10-31T12:24:39;0.60;;;0.60;;
14799;SDS011;7491;57.750;11.970;2023-10-31T12:27:06;0.55;;;0.55;;
14799;SDS011;7491;57.750;11.970;2023-10-31T12:29:32;1.40;;;0.50;;
14799;SDS011;7491;57.750;11.970;2023-10-31T12:32:00;0.30;;;0.30;;
14799;SDS011;7491;57.750;11.970;2023-10-31T12:34:27;0.43;;;0.43;;
14799;SDS011;7491;57.750;11.970;2023-10-31T12:36:54;0.63;;;0.60;;
14799;SDS011;7491;57.750;11.970;2023-10-31T12:39:24;0.70;;;0.47;;
14799;SDS011;7491;57.750;11.970;2023-10-31T12:41:52;0.30;;;0.30;;
14799;SDS011;7491;57.750;11.970;2023-10-31T12:44:20;0.50;;;0.50;;
14799;SDS011;7491;57.750;11.970;2023-10-31T12:46:50;0.40;;;0.40;;
14799;SDS011;7491;57.750;11.970;2023-10-31T12:49:19;0.98;;;0.55;;
14799;SDS011;7491;57.750;11.970;2023-10-31T12:51:56;0.73;;;0.73;;
14799;SDS011;7491;57.750;11.970;2023-10-31T12:54:28;0.43;;;0.43;;
14799;SDS011;7491;57.750;11.970;2023-10-31T12:56:58;0.60;;;0.60;;
14799;SDS011;7491;57.750;11.970;2023-10-31T12:59:26;0.50;;;0.50;;
14799;SDS011;7491;57.750;11.970;2023-10-31T13:01:53;0.40;;;0.40;;
14799;SDS011;7491;57.750;11.970;2023-10-31T13:04:27;0.50;;;0.50;;
14799;SDS011;7491;57.750;11.970;2023-10-31T13:06:56;0.60;;;0.60;;
14799;SDS011;7491;57.750;11.970;2023-10-31T13:09:23;0.68;;;0.47;;
14799;SDS011;7491;57.750;11.970;2023-10-31T13:11:56;0.50;;;0.50;;
14799;SDS011;7491;57.750;11.970;2023-10-31T13:14:24;0.50;;;0.50;;
14799;SDS011;7491;57.750;11.970;2023-10-31T13:16:50;0.75;;;0.40;;
14799;SDS011;7491;57.750;11.970;2023-10-31T13:19:17;0.40;;;0.40;;
14799;SDS011;7491;57.750;11.970;2023-10-31T13:21:45;0.50;;;0.50;;
14799;SDS011;7491;57.750;11.970;2023-10-31T13:24:11;0.57;;;0.57;;
14799;SDS011;7491;57.750;11.970;2023-10-31T13:26:38;0.40;;;0.40;;
14799;SDS011;7491;57.750;11.970;2023-10-31T13:29:05;0.40;;;0.40;;
14799;SDS011;7491;57.750;11.970;2023-10-31T13:31:31;0.82;;;0.50;;
14799;SDS011;7491;57.750;11.970;2023-10-31T13:33:58;1.23;;;0.60;;
14799;SDS011;7491;57.750;11.970;2023-10-31T13:36:25;0.50;;;0.50;;
14799;SDS011;7491;57.750;11.970;2023-10-31T13:38:53;4.78;;;0.68;;
14799;SDS011;7491;57.750;11.970;2023-10-31T13:41:19;0.40;;;0.40;;
14799;SDS011;7491;57.750;11.970;2023-10-31T13:43:46;1.60;;;0.70;;
14799;SDS011;7491;57.750;11.970;2023-10-31T13:46:13;0.40;;;0.40;;
14799;SDS011;7491;57.750;11.970;2023-10-31T13:48:40;1.55;;;0.70;;
14799;SDS011;7491;57.750;11.970;2023-10-31T13:51:07;2.60;;;0.50;;
14799;SDS011;7491;57.750;11.970;2023-10-31T13:53:33;1.00;;;0.50;;
14799;SDS011;7491;57.750;11.970;2023-10-31T13:56:01;0.50;;;0.50;;
14799;SDS011;7491;57.750;11.970;2023-10-31T13:58:28;2.28;;;0.50;;
14799;SDS011;7491;57.750;11.970;2023-10-31T14:00:55;0.55;;;0.55;;
14799;SDS011;7491;57.750;11.970;2023-10-31T14:03:21;0.63;;;0.60;;
14799;SDS011;7491;57.750;11.970;2023-10-31T14:05:50;1.33;;;0.57;;
14799;SDS011;7491;57.750;11.970;2023-10-31T14:08:16;0.95;;;0.45;;
14799;SDS011;7491;57.750;11.970;2023-10-31T14:10:44;0.60;;;0.60;;
14799;SDS011;7491;57.750;11.970;2023-10-31T14:13:22;0.45;;;0.45;;
14799;SDS011;7491;57.750;11.970;2023-10-31T14:15:59;0.85;;;0.50;;
14799;SDS011;7491;57.750;11.970;2023-10-31T14:18:25;0.80;;;0.80;;
14799;SDS011;7491;57.750;11.970;2023-10-31T14:20:52;0.50;;;0.50;;
14799;SDS011;7491;57.750;11.970;2023-10-31T14:23:19;0.50;;;0.50;;
14799;SDS011;7491;57.750;11.970;2023-10-31T14:25:46;0.40;;;0.40;;
14799;SDS011;7491;57.750;11.970;2023-10-31T14:28:14;0.50;;;0.50;;
14799;SDS011;7491;57.750;11.970;2023-10-31T14:30:50;0.60;;;0.60;;
14799;SDS011;7491;57.750;11.970;2023-10-31T14:33:17;0.50;;;0.45;;
14799;SDS011;7491;57.750;11.970;2023-10-31T14:35:51;0.55;;;0.55;;
14799;SDS011;7491;57.750;11.970;2023-10-31T14:38:20;0.47;;;0.47;;
14799;SDS011;7491;57.750;11.970;2023-10-31T14:40:46;0.40;;;0.40;;
14799;SDS011;7491;57.750;11.970;2023-10-31T14:43:13;0.40;;;0.40;;
14799;SDS011;7491;57.750;11.970;2023-10-31T14:45:43;0.50;;;0.50;;
14799;SDS011;7491;57.750;11.970;2023-10-31T14:48:11;0.50;;;0.50;;
14799;SDS011;7491;57.750;11.970;2023-10-31T14:50:38;0.43;;;0.43;;